createdAt,value
2022-11-15T00:01:08.825Z,10.56
2022-11-15T00:03:31.499Z,10.55
2022-11-15T00:05:53.744Z,10.58
2022-11-15T00:08:15.763Z,10.62
2022-11-15T00:10:37.891Z,10.68
2022-11-15T00:12:59.615Z,10.72
2022-11-15T00:15:22.982Z,10.71
2022-11-15T00:17:44.997Z,10.76
2022-11-15T00:20:08.055Z,10.40
2022-11-15T00:22:34.381Z,10.81
2022-11-15T00:24:56.344Z,10.86
2022-11-15T00:27:18.197Z,10.92
2022-11-15T00:29:44.299Z,10.93
2022-11-15T00:32:07.757Z,10.96
2022-11-15T00:34:29.594Z,10.93
2022-11-15T00:36:51.695Z,11.02
2022-11-15T00:39:13.647Z,11.03
2022-11-15T00:41:35.781Z,11.05
2022-11-15T00:43:57.791Z,11.08
2022-11-15T00:46:19.732Z,11.11
2022-11-15T00:48:43.183Z,11.15
2022-11-15T00:51:05.329Z,11.18
2022-11-15T00:53:27.377Z,11.19
2022-11-15T00:55:49.364Z,11.21
2022-11-15T00:58:11.409Z,11.22
2022-11-15T01:00:33.502Z,11.23
2022-11-15T01:02:55.435Z,11.26
2022-11-15T01:05:19.106Z,11.27
2022-11-15T01:07:43.389Z,11.29
2022-11-15T01:10:06.867Z,11.30
2022-11-15T01:12:28.922Z,11.33
2022-11-15T01:14:51.622Z,11.30
2022-11-15T01:17:13.858Z,11.31
2022-11-15T01:19:35.934Z,11.30
2022-11-15T01:21:59.321Z,11.28
2022-11-15T01:24:21.259Z,11.30
2022-11-15T01:26:43.178Z,11.31
2022-11-15T01:29:05.261Z,11.32
2022-11-15T01:31:27.480Z,11.35
2022-11-15T01:33:50.371Z,11.34
2022-11-15T01:36:15.509Z,11.35
2022-11-15T01:38:38.616Z,11.40
2022-11-15T01:41:00.244Z,11.39
2022-11-15T01:43:24.736Z,11.39
2022-11-15T01:45:52.135Z,11.40
2022-11-15T01:48:14.380Z,11.44
2022-11-15T01:50:36.427Z,11.50
2022-11-15T01:52:58.563Z,11.52
2022-11-15T01:55:24.761Z,11.58
2022-11-15T01:57:50.929Z,11.61
2022-11-15T02:00:14.276Z,11.63
2022-11-15T02:02:39.051Z,11.68
2022-11-15T02:05:00.925Z,11.68
2022-11-15T02:07:24.361Z,11.66
2022-11-15T02:09:47.789Z,11.67
2022-11-15T02:12:13.440Z,11.71
2022-11-15T02:14:36.602Z,11.73
2022-11-15T02:17:04.095Z,11.72
2022-11-15T02:19:54.603Z,11.75
2022-11-15T02:22:33.172Z,11.69
2022-11-15T02:25:25.349Z,11.74
2022-11-15T02:28:12.336Z,11.71
2022-11-15T02:30:42.671Z,11.74
2022-11-15T02:33:14.560Z,11.73
2022-11-15T02:35:46.639Z,11.70
2022-11-15T02:38:14.726Z,11.71
2022-11-15T02:40:43.829Z,11.37
2022-11-15T02:43:28.703Z,11.67
2022-11-15T02:45:56.867Z,11.68
2022-11-15T02:48:20.465Z,11.51
2022-11-15T02:50:42.553Z,11.71
2022-11-15T02:53:05.807Z,11.73
2022-11-15T02:55:30.066Z,11.48
2022-11-15T02:57:56.509Z,11.79
2022-11-15T03:00:20.359Z,11.78
2022-11-15T03:03:04.599Z,11.80
2022-11-15T03:05:35.720Z,11.79
2022-11-15T03:08:05.154Z,11.83
2022-11-15T03:10:34.277Z,11.74
2022-11-15T03:12:59.584Z,11.84
2022-11-15T03:15:28.680Z,11.84
2022-11-15T03:17:57.465Z,11.81
2022-11-15T03:20:20.935Z,11.83
2022-11-15T03:22:45.605Z,11.84
2022-11-15T03:25:10.979Z,11.86
2022-11-15T03:27:37.964Z,11.89
2022-11-15T03:30:04.305Z,11.88
2022-11-15T03:32:29.996Z,11.82
2022-11-15T03:34:57.704Z,11.91
2022-11-15T03:37:24.183Z,11.97
2022-11-15T03:39:46.387Z,11.99
2022-11-15T03:42:19.642Z,12.00
2022-11-15T03:44:48.105Z,11.97
2022-11-15T03:47:14.607Z,12.02
2022-11-15T03:49:42.834Z,12.00
2022-11-15T03:52:07.729Z,11.99
2022-11-15T03:54:29.593Z,11.99
2022-11-15T03:56:51.694Z,11.99
2022-11-15T03:59:13.690Z,11.99
2022-11-15T04:01:35.693Z,11.98
2022-11-15T04:03:57.671Z,11.97
2022-11-15T04:06:19.611Z,11.97
2022-11-15T04:08:42.923Z,12.02
2022-11-15T04:11:04.997Z,12.02
2022-11-15T04:13:27.069Z,12.05
2022-11-15T04:15:53.805Z,12.04
2022-11-15T04:18:15.917Z,12.09
2022-11-15T04:21:00.693Z,12.11
2022-11-15T04:23:42.462Z,12.10
2022-11-15T04:26:09.109Z,12.07
2022-11-15T04:28:31.147Z,11.76
2022-11-15T04:30:53.199Z,12.05
2022-11-15T04:33:15.669Z,12.05
2022-11-15T04:35:37.751Z,12.03
2022-11-15T04:37:59.394Z,12.04
2022-11-15T04:40:21.533Z,12.02
2022-11-15T04:42:44.892Z,12.02
2022-11-15T04:45:06.964Z,12.03
2022-11-15T04:47:30.408Z,12.05
2022-11-15T04:49:52.437Z,12.10
2022-11-15T04:52:14.453Z,12.11
2022-11-15T04:54:36.520Z,12.13
2022-11-15T04:56:58.546Z,12.10
2022-11-15T04:59:22.110Z,12.13
2022-11-15T05:01:45.223Z,12.14
2022-11-15T05:04:21.809Z,12.19
2022-11-15T05:06:43.502Z,12.20
2022-11-15T05:09:05.661Z,12.23
2022-11-15T05:11:28.183Z,12.13
2022-11-15T05:13:50.332Z,12.22
2022-11-15T05:16:13.868Z,12.23
2022-11-15T05:18:35.914Z,12.25
2022-11-15T05:20:58.115Z,12.23
2022-11-15T05:23:20.206Z,12.26
2022-11-15T05:25:42.234Z,12.29
2022-11-15T05:28:04.511Z,12.26
2022-11-15T05:30:26.190Z,12.24
2022-11-15T05:32:49.670Z,12.21
2022-11-15T05:35:18.199Z,12.24
2022-11-15T05:37:40.141Z,12.27
2022-11-15T05:40:02.087Z,12.28
2022-11-15T05:42:24.646Z,12.30
2022-11-15T05:44:49.501Z,12.30
2022-11-15T05:47:14.773Z,12.00
2022-11-15T05:49:42.448Z,12.25
2022-11-15T05:52:07.397Z,12.26
2022-11-15T05:54:29.541Z,12.27
2022-11-15T05:56:51.712Z,12.30
2022-11-15T05:59:13.881Z,12.27
2022-11-15T06:01:36.044Z,12.24
2022-11-15T06:04:00.905Z,12.20
2022-11-15T06:06:24.004Z,12.18
2022-11-15T06:08:46.089Z,11.90
2022-11-15T06:11:08.624Z,12.17
2022-11-15T06:13:30.980Z,12.16
2022-11-15T06:15:53.124Z,12.14
2022-11-15T06:18:15.152Z,12.15
2022-11-15T06:20:37.185Z,12.08
2022-11-15T06:23:01.084Z,11.97
2022-11-15T06:25:22.812Z,11.90
2022-11-15T06:27:44.919Z,11.86
2022-11-15T06:30:08.004Z,11.85
2022-11-15T06:32:31.914Z,11.82
2022-11-15T06:34:53.516Z,11.82
2022-11-15T06:37:15.450Z,11.81
2022-11-15T06:39:38.833Z,11.79
2022-11-15T06:42:00.731Z,11.79
2022-11-15T06:44:22.624Z,11.80
2022-11-15T06:46:44.460Z,11.76
2022-11-15T06:49:09.538Z,11.73
2022-11-15T06:51:31.915Z,11.72
2022-11-15T06:53:53.831Z,11.76
2022-11-15T06:56:17.306Z,11.75
2022-11-15T06:58:39.512Z,11.74
2022-11-15T07:01:02.315Z,11.77
2022-11-15T07:03:24.168Z,11.76
2022-11-15T07:05:54.175Z,11.73
2022-11-15T07:08:15.960Z,11.72
2022-11-15T07:10:37.865Z,11.73
2022-11-15T07:13:01.332Z,11.67
2022-11-15T07:15:26.756Z,11.62
2022-11-15T07:17:48.946Z,11.63
2022-11-15T07:20:12.236Z,11.60
2022-11-15T07:22:34.652Z,11.56
2022-11-15T07:24:56.647Z,11.56
2022-11-15T07:27:18.702Z,11.52
2022-11-15T07:29:41.893Z,11.49
2022-11-15T07:32:04.083Z,11.49
2022-11-15T07:34:26.316Z,11.52
2022-11-15T07:36:48.331Z,11.54
2022-11-15T07:39:10.531Z,11.41
2022-11-15T07:41:32.438Z,11.50
2022-11-15T07:43:54.508Z,11.56
2022-11-15T07:46:17.852Z,11.54
2022-11-15T07:48:44.363Z,11.54
2022-11-15T07:51:12.790Z,11.56
2022-11-15T07:53:35.811Z,11.59
2022-11-15T07:55:57.378Z,11.57
2022-11-15T07:58:19.585Z,11.59
2022-11-15T08:00:41.293Z,11.61
2022-11-15T08:03:05.944Z,11.65
2022-11-15T08:05:28.089Z,11.23
2022-11-15T08:07:52.663Z,11.61
2022-11-15T08:10:17.648Z,11.60
2022-11-15T08:12:39.666Z,11.64
2022-11-15T08:15:01.589Z,11.64
2022-11-15T08:17:23.618Z,11.65
2022-11-15T08:19:46.909Z,11.66
2022-11-15T08:22:09.238Z,11.67
2022-11-15T08:24:31.135Z,11.33
2022-11-15T08:26:53.208Z,11.38
2022-11-15T08:29:15.214Z,11.64
2022-11-15T08:31:38.326Z,11.65
2022-11-15T08:34:00.266Z,11.71
2022-11-15T08:36:23.596Z,11.69
2022-11-15T08:38:45.842Z,11.77
2022-11-15T08:41:08.056Z,11.80
2022-11-15T08:43:30.587Z,11.81
2022-11-15T08:45:52.787Z,11.83
2022-11-15T08:48:14.805Z,11.84
2022-11-15T08:50:37.017Z,11.58
2022-11-15T08:53:05.776Z,11.90
2022-11-15T08:55:28.053Z,12.02
2022-11-15T08:57:50.206Z,11.98
2022-11-15T09:00:14.287Z,12.08
2022-11-15T09:02:36.160Z,12.03
2022-11-15T09:04:58.254Z,11.97
2022-11-15T09:07:20.137Z,12.12
2022-11-15T09:09:43.703Z,12.25
2022-11-15T09:12:06.303Z,12.27
2022-11-15T09:14:28.160Z,12.30
2022-11-15T09:16:50.151Z,12.22
2022-11-15T09:19:12.192Z,12.32
2022-11-15T09:21:34.645Z,12.43
2022-11-15T09:23:56.445Z,12.46
2022-11-15T09:26:19.849Z,12.47
2022-11-15T09:28:42.884Z,12.59
2022-11-15T09:31:07.248Z,12.66
2022-11-15T09:33:30.003Z,12.79
2022-11-15T09:35:52.679Z,12.75
2022-11-15T09:38:14.692Z,12.78
2022-11-15T09:40:39.337Z,12.88
2022-11-15T09:43:14.086Z,12.86
2022-11-15T09:45:42.293Z,12.90
2022-11-15T09:48:45.710Z,12.96
2022-11-15T09:51:20.000Z,13.06
2022-11-15T09:54:01.209Z,13.16
2022-11-15T09:56:00.688Z,13.32
2022-11-15T09:58:18.453Z,13.32
2022-11-15T10:00:45.377Z,13.21
2022-11-15T10:03:11.428Z,13.12
2022-11-15T10:05:19.028Z,13.13
2022-11-15T10:07:29.090Z,13.16
2022-11-15T10:09:40.695Z,13.23
2022-11-15T10:11:45.751Z,13.37
2022-11-15T10:13:53.249Z,13.55
2022-11-15T10:16:04.598Z,13.64
2022-11-15T10:18:19.182Z,13.72
2022-11-15T10:20:25.052Z,13.67
2022-11-15T10:22:30.910Z,13.56
2022-11-15T10:24:38.990Z,13.64
2022-11-15T10:26:48.906Z,13.77
2022-11-15T10:28:53.557Z,13.92
2022-11-15T10:30:59.090Z,14.06
2022-11-15T10:33:19.437Z,14.12
2022-11-15T10:35:25.983Z,14.11
2022-11-15T10:37:31.746Z,14.42
2022-11-15T10:39:35.736Z,14.43
2022-11-15T10:41:41.166Z,14.26
2022-11-15T10:43:44.773Z,14.36
2022-11-15T10:45:50.861Z,14.37
2022-11-15T10:47:54.500Z,14.28
2022-11-15T10:50:01.410Z,14.26
2022-11-15T10:52:15.999Z,14.45
2022-11-15T10:54:26.531Z,14.61
2022-11-15T10:56:30.091Z,14.60
2022-11-15T10:58:37.529Z,14.53
2022-11-15T11:00:41.089Z,14.58
2022-11-15T11:02:59.905Z,14.77
2022-11-15T11:05:05.809Z,14.70
2022-11-15T11:07:22.998Z,14.80
2022-11-15T11:09:34.975Z,14.90
2022-11-15T11:11:47.840Z,15.23
2022-11-15T11:13:51.387Z,15.13
2022-11-15T11:16:00.650Z,15.35
2022-11-15T11:18:16.233Z,15.31
2022-11-15T11:20:28.444Z,15.46
2022-11-15T11:22:39.809Z,15.48
2022-11-15T11:24:49.963Z,15.23
2022-11-15T11:27:07.604Z,15.45
2022-11-15T11:29:27.886Z,15.38
2022-11-15T11:31:42.287Z,15.17
2022-11-15T11:33:56.973Z,14.81
2022-11-15T11:36:10.374Z,14.77
2022-11-15T11:38:25.920Z,14.72
2022-11-15T11:40:33.008Z,14.69
2022-11-15T11:42:46.036Z,14.65
2022-11-15T11:45:01.731Z,14.54
2022-11-15T11:47:11.389Z,14.73
2022-11-15T11:49:21.356Z,14.88
2022-11-15T11:51:29.823Z,15.15
2022-11-15T11:53:41.300Z,15.14
2022-11-15T11:55:47.921Z,15.23
2022-11-15T11:57:58.501Z,15.20
2022-11-15T12:00:13.656Z,15.38
2022-11-15T12:02:22.089Z,15.42
2022-11-15T12:04:32.656Z,15.49
2022-11-15T12:06:41.443Z,15.60
2022-11-15T12:08:49.209Z,15.62
2022-11-15T12:11:00.423Z,15.75
2022-11-15T12:13:08.237Z,15.85
2022-11-15T12:15:17.520Z,15.94
2022-11-15T12:17:25.826Z,16.03
2022-11-15T12:19:31.208Z,16.10
2022-11-15T12:21:43.075Z,16.11
2022-11-15T12:23:51.191Z,16.02
2022-11-15T12:25:58.174Z,15.61
2022-11-15T12:28:09.139Z,15.57
2022-11-15T12:30:16.014Z,15.46
2022-11-15T12:32:30.703Z,15.25
2022-11-15T12:34:43.911Z,15.21
2022-11-15T12:36:47.555Z,15.25
2022-11-15T12:38:59.238Z,15.25
2022-11-15T12:41:17.964Z,15.17
2022-11-15T12:43:45.801Z,15.19
2022-11-15T12:45:49.181Z,15.19
2022-11-15T12:47:52.627Z,15.15
2022-11-15T12:49:57.427Z,15.05
2022-11-15T12:52:11.522Z,15.04
2022-11-15T12:54:52.711Z,15.11
2022-11-15T12:57:31.171Z,15.19
2022-11-15T12:59:53.148Z,15.31
2022-11-15T13:02:00.750Z,15.20
2022-11-15T13:04:15.285Z,15.29
2022-11-15T13:06:41.223Z,15.20
2022-11-15T13:08:49.271Z,15.18
2022-11-15T13:10:52.783Z,15.15
2022-11-15T13:12:59.269Z,15.12
2022-11-15T13:15:03.291Z,15.13
2022-11-15T13:17:34.908Z,14.91
2022-11-15T13:19:38.535Z,14.84
2022-11-15T13:22:08.389Z,14.85
2022-11-15T13:24:17.758Z,14.82
2022-11-15T13:26:21.717Z,14.77
2022-11-15T13:28:34.187Z,14.64
2022-11-15T13:30:39.294Z,14.57
2022-11-15T13:32:42.667Z,14.73
2022-11-15T13:34:52.636Z,14.74
2022-11-15T13:36:58.163Z,14.88
2022-11-15T13:39:03.514Z,15.03
2022-11-15T13:41:19.768Z,15.06
2022-11-15T13:43:31.471Z,15.00
2022-11-15T13:45:34.956Z,14.93
2022-11-15T13:47:38.425Z,14.90
2022-11-15T13:49:42.888Z,14.79
2022-11-15T13:51:49.505Z,14.73
2022-11-15T13:53:58.154Z,14.66
2022-11-15T13:56:01.724Z,14.70
2022-11-15T13:58:10.189Z,14.64
2022-11-15T14:00:31.583Z,14.57
2022-11-15T14:02:37.179Z,14.45
2022-11-15T14:04:47.271Z,14.38
2022-11-15T14:06:53.948Z,14.34
2022-11-15T14:09:30.690Z,14.04
2022-11-15T14:11:34.345Z,14.25
2022-11-15T14:13:37.810Z,14.25
2022-11-15T14:15:41.393Z,14.23
2022-11-15T14:17:49.796Z,14.30
2022-11-15T14:19:53.989Z,14.26
2022-11-15T14:22:14.364Z,14.26
2022-11-15T14:24:20.376Z,14.23
2022-11-15T14:26:32.634Z,14.20
2022-11-15T14:28:40.074Z,14.16
2022-11-15T14:30:47.169Z,14.23
2022-11-15T14:32:52.216Z,14.21
2022-11-15T14:34:58.076Z,14.20
2022-11-15T14:37:01.434Z,14.18
2022-11-15T14:39:06.164Z,14.24
2022-11-15T14:41:20.307Z,13.98
2022-11-15T14:43:23.883Z,14.17
2022-11-15T14:45:29.407Z,14.19
2022-11-15T14:47:32.779Z,14.22
2022-11-15T14:49:36.085Z,14.17
2022-11-15T14:51:39.445Z,14.13
2022-11-15T14:53:43.604Z,14.17
2022-11-15T14:55:46.912Z,14.15
2022-11-15T14:57:51.894Z,14.10
2022-11-15T14:59:55.384Z,14.10
2022-11-15T15:02:00.030Z,14.04
2022-11-15T15:04:03.375Z,13.98
2022-11-15T15:06:07.301Z,14.04
2022-11-15T15:08:11.273Z,14.07
2022-11-15T15:12:39.973Z,14.02
2022-11-15T15:14:44.656Z,14.01
2022-11-15T15:16:47.956Z,14.02
2022-11-15T15:18:52.346Z,14.02
2022-11-15T15:20:58.405Z,14.02
2022-11-15T15:23:01.744Z,13.95
2022-11-15T15:25:22.248Z,14.00
2022-11-15T15:27:25.571Z,14.00
2022-11-15T15:29:28.876Z,14.00
2022-11-15T15:31:33.982Z,13.94
2022-11-15T15:33:37.910Z,13.81
2022-11-15T15:35:41.474Z,13.94
2022-11-15T15:37:46.059Z,13.93
2022-11-15T15:39:49.410Z,13.90
2022-11-15T15:41:57.287Z,13.90
2022-11-15T15:44:00.927Z,13.89
2022-11-15T15:46:04.357Z,13.83
2022-11-15T15:48:13.251Z,13.82
2022-11-15T15:50:23.171Z,13.83
2022-11-15T15:52:27.054Z,13.82
2022-11-15T15:54:30.379Z,13.83
2022-11-15T15:56:33.679Z,13.84
2022-11-15T15:58:37.138Z,13.74
2022-11-15T16:00:40.614Z,13.78
2022-11-15T16:02:44.288Z,13.79
2022-11-15T16:04:48.956Z,13.76
2022-11-15T16:06:55.877Z,13.74
2022-11-15T16:09:15.007Z,13.74
2022-11-15T16:11:19.636Z,13.76
2022-11-15T16:13:23.476Z,13.70
2022-11-15T16:15:28.129Z,13.65
2022-11-15T16:17:35.791Z,13.75
2022-11-15T16:19:39.100Z,13.75
2022-11-15T16:21:43.787Z,13.72
2022-11-15T16:23:47.105Z,13.70
2022-11-15T16:25:52.676Z,13.72
2022-11-15T16:27:56.109Z,13.71
2022-11-15T16:29:59.463Z,13.75
2022-11-15T16:32:05.457Z,13.71
2022-11-15T16:34:08.822Z,13.67
2022-11-15T16:36:25.609Z,13.68
2022-11-15T16:38:32.436Z,13.73
2022-11-15T16:40:36.953Z,13.71
2022-11-15T16:42:40.290Z,13.70
2022-11-15T16:44:44.796Z,13.69
2022-11-15T16:46:51.826Z,13.64
2022-11-15T16:48:55.941Z,13.67
2022-11-15T16:51:00.385Z,13.66
2022-11-15T16:53:03.680Z,13.65
2022-11-15T16:55:09.409Z,13.65
2022-11-15T16:57:12.780Z,13.68
2022-11-15T16:59:18.267Z,13.65
2022-11-15T17:01:25.079Z,13.72
2022-11-15T17:03:28.442Z,13.70
2022-11-15T17:05:31.869Z,13.71
2022-11-15T17:07:35.330Z,13.71
2022-11-15T17:09:38.682Z,13.72
2022-11-15T17:11:44.033Z,13.63
2022-11-15T17:13:48.742Z,13.72
2022-11-15T17:15:52.176Z,13.70
2022-11-15T17:17:56.043Z,13.73
2022-11-15T17:19:59.817Z,13.75
2022-11-15T17:22:03.213Z,13.71
2022-11-15T17:24:06.861Z,13.74
2022-11-15T17:26:28.799Z,13.74
2022-11-15T17:28:35.086Z,13.73
2022-11-15T17:30:41.669Z,13.50
2022-11-15T17:32:45.280Z,13.76
2022-11-15T17:34:48.676Z,13.78
2022-11-15T17:36:51.970Z,13.75
2022-11-15T17:38:59.301Z,13.74
2022-11-15T17:41:04.499Z,13.79
2022-11-15T17:43:08.328Z,13.81
2022-11-15T17:45:13.550Z,13.79
2022-11-15T17:47:17.040Z,13.76
2022-11-15T17:49:20.447Z,13.76
2022-11-15T17:51:24.229Z,13.70
2022-11-15T17:53:28.839Z,13.74
2022-11-15T17:55:33.686Z,13.64
2022-11-15T17:57:36.995Z,13.72
2022-11-15T17:59:40.399Z,13.70
2022-11-15T18:01:45.078Z,13.62
2022-11-15T18:03:48.824Z,13.53
2022-11-15T18:05:52.079Z,13.51
2022-11-15T18:07:55.828Z,13.43
2022-11-15T18:09:59.237Z,13.39
2022-11-15T18:12:02.593Z,13.33
2022-11-15T18:14:08.521Z,13.31
2022-11-15T18:16:13.709Z,13.22
2022-11-15T18:18:18.379Z,13.23
2022-11-15T18:20:24.277Z,13.24
2022-11-15T18:22:31.226Z,13.24
2022-11-15T18:24:38.380Z,13.18
2022-11-15T18:26:41.793Z,13.18
2022-11-15T18:28:46.502Z,13.19
2022-11-15T18:30:49.844Z,13.14
2022-11-15T18:32:54.228Z,13.04
2022-11-15T18:34:58.898Z,12.93
2022-11-15T18:37:03.370Z,12.99
2022-11-15T18:39:07.037Z,12.97
2022-11-15T18:41:12.874Z,12.95
2022-11-15T18:43:16.160Z,12.87
2022-11-15T18:45:23.970Z,12.89
2022-11-15T18:47:28.052Z,12.91
2022-11-15T18:49:31.439Z,12.49
2022-11-15T18:51:37.845Z,12.65
2022-11-15T18:53:42.797Z,12.62
2022-11-15T18:55:46.083Z,12.60
2022-11-15T18:57:49.404Z,12.58
2022-11-15T18:59:52.686Z,12.57
2022-11-15T19:01:56.892Z,12.57
2022-11-15T19:04:00.985Z,12.50
2022-11-15T19:06:06.042Z,12.42
2022-11-15T19:08:10.733Z,12.48
2022-11-15T19:10:14.032Z,12.36
2022-11-15T19:12:17.413Z,12.42
2022-11-15T19:14:24.041Z,12.36
2022-11-15T19:16:29.125Z,12.34
2022-11-15T19:18:33.633Z,12.28
2022-11-15T19:20:37.172Z,12.28
2022-11-15T19:22:40.578Z,12.23
2022-11-15T19:24:45.241Z,12.20
2022-11-15T19:26:48.613Z,12.05
2022-11-15T19:28:53.287Z,12.12
2022-11-15T19:31:04.622Z,12.11
2022-11-15T19:33:08.018Z,12.14
2022-11-15T19:35:11.280Z,12.16
2022-11-15T19:37:14.703Z,12.20
2022-11-15T19:39:18.468Z,12.20
2022-11-15T19:41:25.103Z,12.15
2022-11-15T19:43:29.483Z,12.19
2022-11-15T19:45:32.864Z,12.14
2022-11-15T19:47:36.388Z,12.17
2022-11-15T19:49:39.683Z,12.12
2022-11-15T19:51:45.076Z,12.08
2022-11-15T19:53:48.935Z,12.07
2022-11-15T19:55:56.249Z,12.15
2022-11-15T19:58:01.005Z,12.14
2022-11-15T20:00:07.387Z,12.10
2022-11-15T20:02:13.072Z,12.15
2022-11-15T20:04:16.621Z,12.09
2022-11-15T20:06:23.949Z,12.10
2022-11-15T20:08:27.232Z,12.11
2022-11-15T20:10:30.617Z,12.13
2022-11-15T20:12:33.952Z,12.07
2022-11-15T20:14:39.452Z,12.08
2022-11-15T20:16:42.850Z,12.08
2022-11-15T20:18:46.171Z,12.05
2022-11-15T20:20:49.833Z,12.09
2022-11-15T20:22:53.191Z,12.05
2022-11-15T20:24:56.572Z,12.01
2022-11-15T20:27:00.075Z,12.01
2022-11-15T20:29:03.779Z,12.10
2022-11-15T20:31:09.067Z,12.08
2022-11-15T20:33:12.710Z,12.11
2022-11-15T20:35:16.312Z,12.09
2022-11-15T20:37:19.975Z,12.12
2022-11-15T20:39:23.422Z,12.12
2022-11-15T20:41:27.727Z,12.08
2022-11-15T20:43:31.076Z,12.13
2022-11-15T20:45:34.384Z,12.13
2022-11-15T20:47:39.220Z,12.13
2022-11-15T20:49:43.668Z,12.10
2022-11-15T20:51:47.039Z,12.09
2022-11-15T20:53:50.398Z,12.12
2022-11-15T20:55:54.892Z,12.14
2022-11-15T20:57:58.337Z,12.10
2022-11-15T21:00:05.861Z,12.06
2022-11-15T21:02:13.122Z,12.05
2022-11-15T21:04:17.832Z,12.07
2022-11-15T21:06:21.400Z,12.09
2022-11-15T21:08:24.879Z,12.13
2022-11-15T21:10:45.602Z,12.17
2022-11-15T21:12:48.000Z,12.11
2022-11-15T21:14:52.460Z,12.06
2022-11-15T21:16:55.850Z,12.11
2022-11-15T21:18:59.192Z,12.09
2022-11-15T21:21:07.391Z,12.10
2022-11-15T21:23:10.742Z,12.06
2022-11-15T21:25:14.027Z,12.09
2022-11-15T21:27:18.962Z,12.08
2022-11-15T21:29:22.259Z,12.00
2022-11-15T21:31:26.743Z,11.98
2022-11-15T21:33:30.164Z,12.00
2022-11-15T21:35:33.696Z,11.87
2022-11-15T21:37:38.364Z,12.02
2022-11-15T21:39:41.655Z,12.06
2022-11-15T21:41:45.702Z,12.06
2022-11-15T21:43:49.046Z,12.07
2022-11-15T21:46:00.124Z,11.99
2022-11-15T21:48:03.579Z,11.98
2022-11-15T21:50:08.000Z,11.98
2022-11-15T21:52:11.367Z,11.99
2022-11-15T21:54:17.894Z,11.95
2022-11-15T21:56:21.154Z,12.01
2022-11-15T21:58:25.624Z,11.98
2022-11-15T22:00:58.357Z,11.94
2022-11-15T22:03:01.671Z,11.98
2022-11-15T22:05:05.318Z,11.95
2022-11-15T22:07:08.749Z,12.00
2022-11-15T22:09:12.539Z,11.95
2022-11-15T22:11:17.266Z,11.95
2022-11-15T22:13:21.013Z,11.99
2022-11-15T22:15:24.364Z,12.00
2022-11-15T22:17:47.960Z,11.89
2022-11-15T22:19:52.879Z,11.95
2022-11-15T22:21:56.678Z,11.96
2022-11-15T22:24:00.576Z,11.99
2022-11-15T22:26:04.975Z,12.04
2022-11-15T22:28:09.849Z,12.01
2022-11-15T22:30:14.223Z,11.95
2022-11-15T22:32:17.706Z,11.92
2022-11-15T22:34:21.171Z,11.96
2022-11-15T22:36:28.489Z,11.93
2022-11-15T22:38:39.399Z,11.97
2022-11-15T22:40:43.279Z,12.00
2022-11-15T22:42:48.210Z,11.97
2022-11-15T22:44:53.045Z,11.89
2022-11-15T22:46:56.527Z,11.92
2022-11-15T22:49:03.367Z,11.89
2022-11-15T22:51:08.097Z,12.01
2022-11-15T22:53:12.128Z,11.99
2022-11-15T22:55:15.716Z,11.88
2022-11-15T22:57:19.191Z,11.89
2022-11-15T22:59:22.654Z,11.90
2022-11-15T23:01:27.499Z,11.93
2022-11-15T23:03:32.160Z,11.93
2022-11-15T23:05:35.630Z,11.99
2022-11-15T23:07:39.211Z,11.93
2022-11-15T23:09:45.409Z,11.85
2022-11-15T23:12:10.375Z,11.78
2022-11-15T23:14:13.845Z,11.86
2022-11-15T23:16:22.419Z,11.87
2022-11-15T23:18:28.682Z,11.85
2022-11-15T23:20:43.112Z,11.83
2022-11-15T23:22:49.123Z,11.82
2022-11-15T23:24:53.237Z,11.83
2022-11-15T23:27:00.937Z,11.83
2022-11-15T23:29:04.822Z,11.86
2022-11-15T23:31:26.746Z,11.89
2022-11-15T23:33:49.484Z,11.89
2022-11-15T23:35:55.087Z,11.72
2022-11-15T23:37:58.611Z,11.82
2022-11-15T23:40:02.131Z,11.83
2022-11-15T23:42:09.135Z,11.77
2022-11-15T23:44:13.062Z,11.84
2022-11-15T23:46:16.943Z,11.87
2022-11-15T23:48:20.432Z,11.85
2022-11-15T23:50:25.441Z,11.91
2022-11-15T23:52:29.846Z,11.89
2022-11-15T23:54:33.263Z,11.89
2022-11-15T23:56:36.736Z,11.91
2022-11-15T23:58:40.777Z,11.91
